Time;durP1;ratioP1;P1;durP2;ratioP2;P2;SDS_P1;SDS_P2;PMS_P1;PMS_P2;Temp;Humidity;BMP_temperature;BMP_pressure;BME280_temperature;BME280_humidity;BME280_pressure;Samples;Min_cycle;Max_cycle;Signal;HPM_P1;HPM_P2
2022/03/23 11:01:21;;;;;;;125.75;50.15;;;;;;;17.02;18.23;102331.22;1800930;78;22849;-87
2022/03/23 11:03:49;;;;;;;21.42;8.90;;;;;;;16.98;18.22;102321.94;1780212;80;21553;-87
2022/03/23 11:06:20;;;;;;;14.15;6.58;;;;;;;16.92;18.19;102321.07;1763121;80;21174;-88
2022/03/23 11:08:46;;;;;;;21.33;6.67;;;;;;;16.86;18.68;102318.58;1757848;80;21106;-88
2022/03/23 11:16:47;;;;;;;17.70;6.20;;;;;;;17.91;18.35;102313.22;1785740;80;21515;-88
2022/03/23 11:19:23;;;;;;;17.45;5.80;;;;;;;18.42;18.37;102313.94;1781624;80;21107;-87
2022/03/23 11:22:05;;;;;;;13.98;5.92;;;;;;;18.65;18.00;102304.38;1773534;80;21002;-88
2022/03/23 11:24:47;;;;;;;21.75;7.15;;;;;;;18.69;17.69;102303.58;1775495;80;21509;-85
2022/03/23 11:27:18;;;;;;;15.68;5.80;;;;;;;18.64;17.92;102298.66;1721551;83;21610;-85
2022/03/23 11:29:47;;;;;;;13.93;5.70;;;;;;;18.69;17.77;102292.66;1681907;83;21022;-85
2022/03/23 11:32:32;;;;;;;12.75;5.53;;;;;;;18.88;17.75;102293.49;1712594;83;21934;-85
2022/03/23 11:35:01;;;;;;;18.02;6.55;;;;;;;18.92;17.58;102289.14;1711419;83;21081;-87
2022/03/23 11:37:29;;;;;;;15.90;5.90;;;;;;;18.90;17.59;102287.22;1708041;83;21618;-86
2022/03/23 11:39:57;;;;;;;15.30;5.85;;;;;;;19.08;17.54;102274.34;1676627;83;21661;-86
2022/03/23 11:42:25;;;;;;;14.25;5.45;;;;;;;19.06;17.28;102273.27;1705587;83;21529;-86
2022/03/23 11:44:51;;;;;;;14.73;5.80;;;;;;;18.99;17.64;102278.19;1720323;83;21076;-86
2022/03/23 11:47:44;;;;;;;14.98;5.83;;;;;;;19.11;17.49;102267.52;1709912;83;21079;-86
2022/03/23 11:50:33;;;;;;;13.58;5.67;;;;;;;19.09;17.42;102265.59;1703865;83;21698;-86
2022/03/23 11:53:19;;;;;;;15.80;5.80;;;;;;;19.06;17.42;102256.06;1721197;83;21270;-85
2022/03/23 11:55:53;;;;;;;16.97;6.53;;;;;;;19.30;17.49;102264.47;1703527;83;21507;-87
2022/03/23 11:58:22;;;;;;;;;;;;;;;19.54;17.44;102254.28;1709989;83;21034;-86
2022/03/23 12:00:54;;;;;;;19.70;5.87;;;;;;;19.67;17.59;102257.24;1713635;83;20200;-87
2022/03/23 12:03:45;;;;;;;14.68;6.08;;;;;;;19.74;17.18;102252.86;1696828;83;21601;-87
2022/03/23 12:06:15;;;;;;;19.60;7.25;;;;;;;19.52;17.08;102253.17;1708713;83;21578;-86
2022/03/23 12:08:58;;;;;;;19.35;5.97;;;;;;;19.38;17.40;102247.47;1711026;83;21101;-86
2022/03/23 12:11:49;;;;;;;15.98;7.45;;;;;;;19.21;17.26;102235.52;1710851;83;21137;-85
2022/03/23 12:14:28;;;;;;;17.85;6.40;;;;;;;19.10;17.38;102233.91;1722228;83;21030;-86
2022/03/23 12:17:01;;;;;;;12.53;5.90;;;;;;;18.95;17.46;102232.58;1711876;83;21077;-86
2022/03/23 12:19:35;;;;;;;15.08;6.37;;;;;;;18.82;17.48;102223.86;1716125;83;21002;-87
2022/03/23 12:22:09;;;;;;;18.57;6.20;;;;;;;18.79;17.66;102217.55;1668503;82;21038;-87
2022/03/23 12:24:50;;;;;;;12.53;5.97;;;;;;;18.61;17.84;102213.45;1702951;83;21176;-85
2022/03/23 12:27:56;;;;;;;12.70;6.28;;;;;;;18.70;17.83;102217.00;1712619;82;21077;-86
2022/03/23 12:30:30;;;;;;;16.10;5.83;;;;;;;18.82;18.01;102209.36;1723093;83;22332;-86
2022/03/23 12:32:58;;;;;;;20.45;6.10;;;;;;;18.99;17.83;102207.70;1701446;83;21026;-86
2022/03/23 12:35:31;;;;;;;16.70;6.40;;;;;;;19.04;17.76;102203.04;1703335;83;21050;-87
2022/03/23 12:38:02;;;;;;;19.35;6.95;;;;;;;18.86;17.45;102205.55;1621120;87;21170;-88
2022/03/23 12:40:44;;;;;;;15.53;6.92;;;;;;;18.80;17.61;102195.99;1628997;87;21109;-87
2022/03/23 12:43:36;;;;;;;18.77;7.15;;;;;;;18.79;17.94;102188.06;1626427;87;21567;-86
2022/03/23 12:46:04;;;;;;;17.77;6.80;;;;;;;18.72;17.95;102188.32;1628536;87;21168;-87
2022/03/23 12:59:52;;;;;;;23.87;6.97;;;;;;;18.11;18.01;102167.87;1590348;89;21098;-85
2022/03/23 13:02:30;;;;;;;16.82;6.20;;;;;;;17.91;18.26;102164.05;1581828;89;21096;-86
2022/03/23 13:04:57;;;;;;;20.65;6.17;;;;;;;17.66;18.54;102161.23;1597701;89;21132;-85
2022/03/23 13:07:35;;;;;;;19.15;6.95;;;;;;;17.67;18.87;102162.31;1591496;89;21695;-86
2022/03/23 13:10:14;;;;;;;14.80;5.55;;;;;;;17.57;18.92;102163.66;1585098;89;21045;-85
2022/03/23 13:12:42;;;;;;;21.02;7.17;;;;;;;17.40;18.92;102156.24;1583052;89;21041;-85
2022/03/23 13:15:16;;;;;;;20.60;6.25;;;;;;;17.22;18.95;102153.45;1598506;89;21123;-85
2022/03/23 13:17:45;;;;;;;22.45;7.20;;;;;;;16.95;19.12;102153.05;1587665;89;21187;-86
2022/03/23 13:20:15;;;;;;;18.57;6.65;;;;;;;16.80;19.42;102146.98;1523707;92;21594;-85
2022/03/23 13:22:42;;;;;;;20.95;6.65;;;;;;;16.74;19.55;102138.48;1544687;92;21623;-86
2022/03/23 13:25:17;;;;;;;22.70;6.92;;;;;;;16.34;20.02;102119.42;1549981;92;21086;-85
2022/03/23 13:27:44;;;;;;;18.05;6.60;;;;;;;16.40;20.16;102127.63;1530569;92;21192;-85
2022/03/23 13:30:13;;;;;;;19.77;6.25;;;;;;;16.40;20.16;102127.63;1528004;92;21112;-85
2022/03/23 13:32:46;;;;;;;14.93;5.50;;;;;;;16.37;20.24;102124.07;1540319;92;21062;-85
2022/03/23 13:35:21;;;;;;;18.25;6.12;;;;;;;16.27;20.21;102126.19;1541911;92;21136;-85
2022/03/23 13:38:00;;;;;;;17.75;6.00;;;;;;;16.10;20.32;102124.41;1550024;92;21150;-84
2022/03/23 13:43:19;;;;;;;23.00;5.90;;;;;;;16.01;20.47;102115.09;1554291;89;21226;-84
2022/03/23 13:43:22;;;;;;;16.25;6.10;;;;;;;15.88;20.44;102109.55;1578575;90;21014;-86
2022/03/23 13:45:51;;;;;;;10.60;4.72;;;;;;;15.76;20.54;102107.50;1580837;89;21015;-85
2022/03/23 13:48:18;;;;;;;19.07;6.15;;;;;;;15.60;20.32;102103.80;1566680;89;21628;-85
2022/03/23 13:50:50;;;;;;;19.07;6.83;;;;;;;15.53;20.57;102092.32;1629233;86;21104;-85
2022/03/23 13:53:18;;;;;;;15.38;5.80;;;;;;;15.42;20.92;102091.39;1664140;86;21109;-85
2022/03/23 13:55:51;;;;;;;16.93;6.45;;;;;;;15.42;20.92;102091.39;1652189;85;21118;-84
2022/03/23 13:58:19;;;;;;;18.87;6.40;;;;;;;15.37;21.10;102083.72;1638137;85;21103;-85
2022/03/23 14:00:50;;;;;;;15.98;6.78;;;;;;;15.32;21.19;102085.01;1648386;86;21043;-86
2022/03/23 14:03:21;;;;;;;17.52;6.85;;;;;;;15.26;21.32;102081.41;1649679;85;21137;-85
2022/03/23 14:06:10;;;;;;;21.80;7.47;;;;;;;15.26;21.60;102084.67;1645853;86;21106;-85
2022/03/23 14:08:39;;;;;;;20.20;7.72;;;;;;;15.18;21.39;102078.63;1662683;86;21185;-85
2022/03/23 14:11:09;;;;;;;19.57;6.90;;;;;;;15.11;21.51;102073.09;1656713;86;21493;-85
2022/03/23 14:13:38;;;;;;;20.85;7.42;;;;;;;15.02;21.53;102066.48;1656489;85;21040;-86
2022/03/23 14:16:04;;;;;;;16.62;7.22;;;;;;;14.95;21.83;102063.96;1666448;80;21066;-85
2022/03/23 14:18:33;;;;;;;21.68;7.33;;;;;;;14.92;22.02;102066.64;1780253;80;21046;-85
2022/03/23 14:21:03;;;;;;;20.88;6.67;;;;;;;14.92;22.21;102059.86;1765938;80;21200;-86
2022/03/23 14:23:32;;;;;;;16.85;6.00;;;;;;;14.87;22.03;102055.71;1784731;80;20952;-85
2022/03/23 14:26:17;;;;;;;20.95;5.97;;;;;;;14.83;22.04;102061.91;1768101;80;21528;-84
2022/03/23 14:28:46;;;;;;;21.60;6.53;;;;;;;14.78;22.03;102057.77;1738778;81;21090;-85
2022/03/23 14:31:22;;;;;;;17.73;6.15;;;;;;;14.67;21.99;102058.16;1725949;81;20990;-85
2022/03/23 14:33:56;;;;;;;17.60;6.05;;;;;;;14.59;22.18;102058.59;1739258;81;21129;-85
2022/03/23 14:36:28;;;;;;;21.45;6.80;;;;;;;14.52;22.45;102054.17;1662743;84;21804;-86
2022/03/23 14:38:57;;;;;;;20.65;7.22;;;;;;;14.47;22.71;102051.88;1673327;84;21038;-84
2022/03/23 14:41:27;;;;;;;18.85;6.47;;;;;;;14.42;23.12;102049.94;1671270;84;21515;-83
2022/03/23 14:43:55;;;;;;;21.02;7.15;;;;;;;14.38;23.37;102052.84;1677597;84;21090;-83
2022/03/23 14:46:28;;;;;;;20.70;7.22;;;;;;;14.32;23.30;102045.70;1671613;84;21870;-84
2022/03/23 14:49:08;;;;;;;24.10;7.35;;;;;;;14.27;23.46;102041.59;1616381;87;21077;-84
2022/03/23 14:51:39;;;;;;;23.77;7.30;;;;;;;14.25;23.64;102041.00;1619309;87;21061;-84
2022/03/23 14:54:09;;;;;;;17.05;6.95;;;;;;;14.18;23.53;102033.59;1580384;89;21169;-84
2022/03/23 14:56:37;;;;;;;19.25;6.55;;;;;;;14.12;23.66;102033.20;1582806;89;21036;-84
2022/03/23 14:59:04;;;;;;;18.45;6.70;;;;;;;14.07;23.61;102036.67;1583048;89;21127;-84
2022/03/23 15:01:32;;;;;;;27.82;7.45;;;;;;;14.00;23.92;102027.88;1583941;89;21278;-84
2022/03/23 15:03:59;;;;;;;20.02;7.15;;;;;;;13.93;24.22;102025.34;1571099;89;21207;-84
2022/03/23 15:14:41;;;;;;;28.10;7.45;;;;;;;13.54;24.33;102025.23;1568077;90;21110;-85
2022/03/23 15:17:08;;;;;;;30.97;7.85;;;;;;;13.47;24.44;102012.91;1569914;91;21055;-85
2022/03/23 15:19:35;;;;;;;32.08;8.35;;;;;;;13.35;24.56;102014.32;1569780;91;21150;-85
2022/03/23 15:22:03;;;;;;;28.35;8.30;;;;;;;13.18;24.83;102009.67;1547159;91;21238;-85
2022/03/23 15:24:29;;;;;;;28.77;9.23;;;;;;;13.05;24.88;102015.36;1570939;90;21121;-85
2022/03/23 15:26:56;;;;;;;29.80;9.65;;;;;;;12.91;25.31;102009.94;1569475;90;21059;-84
2022/03/23 15:29:23;;;;;;;31.93;8.93;;;;;;;12.76;25.55;102013.16;1570017;91;21650;-85
2022/03/23 15:31:49;;;;;;;34.80;10.18;;;;;;;12.54;25.84;102006.77;1568559;90;21112;-85
2022/03/23 15:34:15;;;;;;;36.13;9.05;;;;;;;12.30;26.06;102010.03;1611458;87;21553;-87
2022/03/23 15:36:41;;;;;;;42.33;10.08;;;;;;;12.07;26.01;102011.67;1612158;88;21156;-87
2022/03/23 15:39:09;;;;;;;46.77;10.93;;;;;;;11.84;26.10;102009.74;1612239;88;21040;-87
2022/03/23 15:41:36;;;;;;;38.73;10.50;;;;;;;11.65;26.20;102013.07;1611680;88;21210;-85
2022/03/23 15:44:09;;;;;;;35.35;9.55;;;;;;;11.41;27.07;102005.41;1612218;88;21025;-84
2022/03/23 15:46:38;;;;;;;43.45;10.15;;;;;;;11.19;27.51;101999.73;1655303;86;21157;-84
2022/03/23 15:49:06;;;;;;;46.85;10.35;;;;;;;10.95;27.32;102004.20;1667881;86;21179;-85
2022/03/23 15:51:33;;;;;;;42.70;10.60;;;;;;;10.70;27.31;102005.64;1749849;80;21007;-85
2022/03/23 15:54:01;;;;;;;33.75;9.35;;;;;;;10.44;27.99;102000.88;1783753;80;21040;-86
2022/03/23 15:56:27;;;;;;;63.65;13.10;;;;;;;10.18;28.74;102009.20;1768188;80;20983;-89
2022/03/23 15:58:53;;;;;;;42.33;11.00;;;;;;;9.97;28.35;102010.40;1768551;80;21113;-86
2022/03/23 16:01:19;;;;;;;55.35;11.40;;;;;;;9.69;29.74;102004.13;1758002;80;21159;-85
2022/03/23 16:03:48;;;;;;;62.80;13.38;;;;;;;9.44;30.51;102004.93;1783619;80;21023;-85
2022/03/23 16:06:15;;;;;;;58.92;13.05;;;;;;;9.22;30.45;102010.34;1784177;80;21233;-86
2022/03/23 16:08:42;;;;;;;72.00;13.53;;;;;;;8.98;30.00;102006.53;1784247;80;21117;-89
2022/03/23 16:11:09;;;;;;;71.50;12.13;;;;;;;8.73;30.31;102004.55;1757094;80;21496;-89
2022/03/23 16:13:35;;;;;;;74.00;14.05;;;;;;;8.50;31.51;102005.55;1770558;80;21043;-89
2022/03/23 16:16:02;;;;;;;82.70;12.15;;;;;;;8.27;32.11;102006.02;1756757;80;21030;-89
2022/03/23 16:18:28;;;;;;;59.98;11.75;;;;;;;8.08;32.39;102010.36;1757825;80;21650;-86
2022/03/23 16:20:54;;;;;;;61.42;13.65;;;;;;;7.86;32.38;102005.74;1778284;80;21090;-86
2022/03/23 16:23:21;;;;;;;59.38;12.90;;;;;;;7.65;31.96;102006.77;1775031;80;20949;-88
2022/03/23 16:25:47;;;;;;;49.10;11.95;;;;;;;7.45;33.21;102004.06;1759606;80;21057;-88
2022/03/23 16:28:13;;;;;;;56.83;12.88;;;;;;;7.25;33.53;102004.84;1765335;80;21042;-88
2022/03/23 16:30:40;;;;;;;46.60;11.78;;;;;;;7.11;33.87;102002.33;1770486;80;21050;-88
2022/03/23 16:33:07;;;;;;;45.00;11.15;;;;;;;6.94;34.55;102003.19;1768459;80;21039;-87
2022/03/23 16:35:36;;;;;;;39.55;11.08;;;;;;;6.74;34.83;102000.45;1774869;80;20984;-88
2022/03/23 16:38:01;;;;;;;49.83;11.40;;;;;;;6.55;35.05;102004.67;1769479;80;21201;-87
2022/03/23 16:40:29;;;;;;;55.60;10.75;;;;;;;6.36;35.31;102004.38;1784045;80;21058;-87
2022/03/23 16:42:57;;;;;;;44.15;11.22;;;;;;;6.17;35.22;102007.73;1784832;80;21591;-88
2022/03/23 16:45:26;;;;;;;36.75;10.23;;;;;;;6.00;35.83;102009.90;1765033;80;21610;-88
2022/03/23 16:47:55;;;;;;;41.33;11.65;;;;;;;5.88;36.55;102002.88;1774299;80;21492;-87
2022/03/23 16:50:24;;;;;;;50.08;11.90;;;;;;;5.72;36.32;102009.02;1758992;80;21291;-88
2022/03/23 16:52:53;;;;;;;59.53;11.90;;;;;;;5.55;36.72;102007.10;1779192;80;21007;-88
2022/03/23 16:55:22;;;;;;;58.08;11.05;;;;;;;5.41;36.99;102009.66;1766028;80;21673;-88
2022/03/23 16:57:49;;;;;;;49.45;11.80;;;;;;;5.27;37.59;102009.20;1769338;80;21118;-88
2022/03/23 17:00:16;;;;;;;36.08;11.60;;;;;;;5.15;37.74;102008.05;1783718;80;21008;-88
2022/03/23 17:13:42;;;;;;;85.75;21.23;;;;;;;4.45;39.65;102003.58;1756837;80;21491;-88
2022/03/23 17:16:14;;;;;;;71.70;19.57;;;;;;;4.32;39.26;102002.05;1763622;80;21133;-88
2022/03/23 17:18:38;;;;;;;63.75;19.23;;;;;;;4.24;39.88;102005.65;1766996;80;21512;-88
2022/03/23 17:21:04;;;;;;;74.42;20.60;;;;;;;4.17;40.41;102002.03;1769048;80;21157;-88
2022/03/23 17:23:31;;;;;;;85.90;22.82;;;;;;;4.08;41.26;101999.95;1773225;80;21046;-88
2022/03/23 17:25:57;;;;;;;93.05;26.52;;;;;;;3.98;41.56;102000.73;1783546;80;21649;-88
2022/03/23 17:28:23;;;;;;;99.17;27.82;;;;;;;3.87;41.96;101999.32;1779962;80;21080;-88
2022/03/23 17:30:50;;;;;;;96.95;28.60;;;;;;;3.72;42.23;101995.80;1761034;80;20988;-88
2022/03/23 17:33:16;;;;;;;118.60;31.00;;;;;;;3.67;42.15;102000.00;1757090;80;21555;-88
2022/03/23 17:35:42;;;;;;;106.05;30.02;;;;;;;3.59;42.68;101999.59;1784587;80;21054;-87
2022/03/23 17:38:08;;;;;;;100.67;29.95;;;;;;;3.54;42.95;101995.29;1783248;80;20940;-90
2022/03/23 17:40:35;;;;;;;121.10;31.20;;;;;;;3.45;43.38;101993.19;1779938;80;21985;-90
2022/03/23 17:43:02;;;;;;;100.45;29.32;;;;;;;3.37;43.66;101990.58;1747544;80;21062;-88
2022/03/23 17:45:28;;;;;;;113.68;32.40;;;;;;;3.28;43.53;101991.64;1784307;80;20960;-88
2022/03/23 17:47:54;;;;;;;121.95;35.45;;;;;;;3.23;43.73;101984.16;1784736;80;21560;-88
2022/03/23 17:50:20;;;;;;;104.72;31.82;;;;;;;3.19;43.84;101982.36;1763164;80;21041;-87
2022/03/23 17:52:47;;;;;;;121.28;35.50;;;;;;;3.16;44.04;101979.23;1772561;80;21062;-88
2022/03/23 17:55:13;;;;;;;110.48;32.83;;;;;;;3.13;44.13;101983.07;1769822;80;21004;-88
2022/03/23 17:57:40;;;;;;;119.95;36.88;;;;;;;3.02;44.39;101979.47;1770497;80;21011;-88
2022/03/23 18:00:10;;;;;;;123.55;37.40;;;;;;;2.95;44.82;101977.20;1784241;80;21185;-88
2022/03/23 18:02:36;;;;;;;253.20;67.37;;;;;;;2.84;45.47;101978.41;1752392;80;21057;-88
2022/03/23 18:05:03;;;;;;;183.27;49.30;;;;;;;2.77;44.78;101972.64;1775221;80;21902;-88
2022/03/23 18:07:29;;;;;;;170.87;51.10;;;;;;;2.69;45.33;101972.99;1775176;80;20987;-88
2022/03/23 18:09:56;;;;;;;178.93;51.92;;;;;;;2.64;45.74;101970.52;1770413;80;20974;-88
2022/03/23 18:12:22;;;;;;;170.22;45.92;;;;;;;2.61;45.97;101973.02;1773848;80;21539;-88
2022/03/23 18:14:49;;;;;;;178.42;48.02;;;;;;;2.56;46.49;101970.08;1749106;80;21090;-88
2022/03/23 18:17:15;;;;;;;182.60;49.93;;;;;;;2.52;46.51;101965.26;1771482;80;21046;-88
2022/03/23 18:19:43;;;;;;;149.47;44.38;;;;;;;2.45;47.26;101969.94;1777033;80;21453;-89
2022/03/23 18:22:11;;;;;;;174.05;46.90;;;;;;;2.41;47.39;101964.64;1765839;80;21041;-88
2022/03/23 18:24:38;;;;;;;164.60;45.95;;;;;;;2.39;47.44;101961.83;1771272;80;21105;-88
2022/03/23 18:27:04;;;;;;;152.50;41.95;;;;;;;2.28;47.79;101963.84;1769158;80;21200;-88
2022/03/23 18:29:31;;;;;;;125.18;37.50;;;;;;;2.24;48.24;101963.03;1784664;80;22107;-89
2022/03/23 18:31:57;;;;;;;124.95;39.42;;;;;;;2.18;48.04;101961.89;1765598;80;21061;-88
2022/03/23 18:34:23;;;;;;;129.07;36.93;;;;;;;2.10;48.12;101961.08;1779421;80;21110;-89
2022/03/23 18:36:50;;;;;;;119.40;36.55;;;;;;;2.01;48.39;101960.27;1774671;80;21525;-88
2022/03/23 18:39:16;;;;;;;110.75;34.45;;;;;;;1.94;48.76;101960.12;1743211;80;21037;-87
2022/03/23 18:41:42;;;;;;;126.58;38.33;;;;;;;1.90;48.42;101964.59;1778632;80;21062;-88
2022/03/23 18:44:09;;;;;;;137.28;41.90;;;;;;;1.85;49.23;101962.94;1748394;80;21659;-89
2022/03/23 18:46:36;;;;;;;127.10;42.98;;;;;;;1.81;50.13;101958.46;1770446;80;21046;-88
2022/03/23 18:49:03;;;;;;;146.13;41.25;;;;;;;1.72;50.62;101956.31;1785311;80;21038;-88
2022/03/23 18:51:29;;;;;;;143.10;44.42;;;;;;;1.68;52.11;101948.86;1779463;80;21082;-88
2022/03/23 18:53:55;;;;;;;149.80;44.53;;;;;;;1.65;52.43;101951.82;1763587;80;21881;-88
2022/03/23 18:56:23;;;;;;;137.25;41.65;;;;;;;1.61;55.60;101950.51;1772662;80;21117;-88
2022/03/23 18:58:50;;;;;;;138.20;40.25;;;;;;;1.52;54.41;101953.66;1648204;86;21023;-88
2022/03/23 19:01:16;;;;;;;127.75;39.53;;;;;;;1.43;53.87;101956.81;1654840;86;21292;-88
2022/03/23 19:03:45;;;;;;;126.15;38.58;;;;;;;1.32;56.54;101950.03;1659402;86;21270;-88
2022/03/23 19:06:12;;;;;;;117.90;34.50;;;;;;;1.30;58.78;101948.03;1628531;86;21434;-90
2022/03/23 19:08:40;;;;;;;108.27;33.90;;;;;;;1.30;62.96;101950.68;1648674;86;21052;-90
2022/03/23 19:11:09;;;;;;;89.90;30.17;;;;;;;1.29;69.09;101946.84;1646824;86;21097;-88
2022/03/23 19:13:37;;;;;;;105.90;31.62;;;;;;;1.30;74.28;101949.35;1645840;86;21110;-88
2022/03/23 19:16:05;;;;;;;101.97;32.38;;;;;;;1.27;77.30;101943.05;1647408;86;21102;-89
2022/03/23 19:18:32;;;;;;;108.55;34.88;;;;;;;1.26;86.78;101948.00;1648704;86;21343;-88
2022/03/23 19:20:59;;;;;;;119.22;33.13;;;;;;;1.26;95.22;101940.54;1647690;86;21114;-88
2022/03/23 19:23:26;;;;;;;114.22;34.25;;;;;;;1.17;83.88;101941.03;1655977;86;21204;-89
2022/03/23 19:25:52;;;;;;;114.40;33.50;;;;;;;1.09;85.19;101939.72;1655099;86;21046;-89
2022/03/23 19:28:20;;;;;;;117.55;36.08;;;;;;;1.04;87.61;101941.52;1652606;86;21124;-90
2022/03/23 19:30:46;;;;;;;119.13;37.48;;;;;;;1.00;91.75;101931.37;1655118;86;21091;-91
2022/03/23 19:33:13;;;;;;;129.05;37.53;;;;;;;0.96;91.88;101925.58;1592837;89;21098;-90
2022/03/23 19:35:42;;;;;;;117.65;37.38;;;;;;;0.89;89.83;101919.27;1583883;88;21718;-88
2022/03/23 19:38:07;;;;;;;129.40;40.28;;;;;;;0.80;89.85;101918.42;1585482;89;21067;-88
2022/03/23 19:40:33;;;;;;;109.65;35.95;;;;;;;0.76;99.58;101913.09;1568455;89;21098;-88
2022/03/23 19:43:00;;;;;;;121.55;34.88;;;;;;;0.70;98.33;101912.92;1594164;88;21183;-88
2022/03/23 19:45:27;;;;;;;110.05;34.23;;;;;;;0.59;95.72;101906.08;1592704;89;21578;-88
2022/03/23 19:47:53;;;;;;;97.78;31.85;;;;;;;0.53;93.44;101910.23;1600466;89;21446;-88
2022/03/23 19:50:20;;;;;;;94.72;31.02;;;;;;;0.47;95.27;101908.70;1600928;89;21138;-88
2022/03/23 19:52:46;;;;;;;103.92;29.63;;;;;;;0.40;92.36;101905.37;1584226;88;21118;-88
2022/03/23 19:55:13;;;;;;;82.45;27.93;;;;;;;0.34;90.20;101907.84;1613702;84;21231;-88
2022/03/23 19:57:39;;;;;;;81.32;24.67;;;;;;;0.28;83.16;101906.66;1728853;80;21081;-88
2022/03/23 20:00:07;;;;;;;82.53;24.52;;;;;;;0.27;85.32;101906.33;1758030;80;20960;-88
2022/03/23 20:02:34;;;;;;;79.42;25.23;;;;;;;0.27;86.92;101903.67;1768739;80;21037;-88
2022/03/23 20:05:00;;;;;;;95.10;32.88;;;;;;;0.23;84.58;101903.64;1776053;80;20948;-89
2022/03/23 20:07:27;;;;;;;95.92;30.97;;;;;;;0.22;93.55;101901.98;1773414;80;21480;-89
2022/03/23 20:09:53;;;;;;;99.95;32.98;;;;;;;0.22;100.00;101900.66;1756876;80;21018;-88
2022/03/23 20:12:19;;;;;;;112.42;36.23;;;;;;;0.17;100.00;101897.65;1737230;80;21109;-88
2022/03/23 20:14:48;;;;;;;112.47;34.33;;;;;;;0.16;100.00;101899.48;1756799;80;21449;-88
2022/03/23 20:17:14;;;;;;;104.32;33.33;;;;;;;0.13;100.00;101891.84;1778994;80;21528;-89
2022/03/23 20:19:40;;;;;;;122.05;38.73;;;;;;;0.06;100.00;101897.45;1784191;80;21121;-89
2022/03/23 20:22:07;;;;;;;113.47;37.20;;;;;;;-0.03;100.00;101895.26;1765535;80;21050;-89
2022/03/23 20:24:33;;;;;;;133.63;38.42;;;;;;;-0.06;100.00;101890.74;1774603;80;21387;-88
2022/03/23 20:26:59;;;;;;;119.08;37.95;;;;;;;-0.08;100.00;101890.09;1757008;80;21059;-89
2022/03/23 20:29:26;;;;;;;124.80;37.95;;;;;;;-0.13;100.00;101889.23;1756872;80;21618;-88
2022/03/23 20:31:52;;;;;;;122.90;38.70;;;;;;;-0.15;100.00;101890.37;1761675;80;21113;-88
2022/03/23 20:34:18;;;;;;;123.42;40.73;;;;;;;-0.25;100.00;101885.19;1782309;80;21101;-89
2022/03/23 20:36:45;;;;;;;136.68;41.88;;;;;;;-0.29;100.00;101883.85;1756365;80;21591;-89
2022/03/23 20:39:11;;;;;;;155.15;49.38;;;;;;;-0.29;100.00;101882.53;1770560;80;21098;-89
2022/03/23 20:41:37;;;;;;;137.57;43.17;;;;;;;-0.25;100.00;101877.24;1776688;80;20972;-89
2022/03/23 20:44:05;;;;;;;145.85;43.80;;;;;;;-0.28;100.00;101879.70;1783757;80;21984;-88
2022/03/23 20:46:32;;;;;;;140.92;47.03;;;;;;;-0.34;100.00;101880.33;1779326;80;21105;-90
2022/03/23 20:49:01;;;;;;;148.17;46.75;;;;;;;-0.36;100.00;101882.80;1762426;80;20995;-88
2022/03/23 20:51:27;;;;;;;149.77;47.13;;;;;;;-0.38;100.00;101884.30;1763894;80;21054;-87
2022/03/23 20:53:53;;;;;;;138.35;47.27;;;;;;;-0.41;100.00;101887.25;1779399;80;21197;-88
2022/03/23 20:56:21;;;;;;;145.02;47.35;;;;;;;-0.50;100.00;101882.39;1765478;80;21054;-88
2022/03/23 20:58:48;;;;;;;148.15;48.20;;;;;;;-0.57;100.00;101876.04;1775021;80;21030;-88
2022/03/23 21:01:14;;;;;;;148.57;47.15;;;;;;;-0.61;100.00;101873.38;1775098;80;21480;-88
2022/03/23 21:03:42;;;;;;;135.25;45.70;;;;;;;-0.62;100.00;101874.84;1769702;80;21067;-88
2022/03/23 21:06:12;;;;;;;154.42;46.63;;;;;;;-0.67;100.00;101867.87;1756401;80;21014;-88
2022/03/23 21:08:40;;;;;;;141.22;45.65;;;;;;;-0.72;100.00;101869.15;1776521;80;21082;-88
2022/03/23 21:11:05;;;;;;;135.28;44.18;;;;;;;-0.76;100.00;101865.16;1762970;80;20974;-88
2022/03/23 21:13:31;;;;;;;143.35;46.02;;;;;;;-0.78;100.00;101861.83;1763372;80;21051;-88
2022/03/23 21:15:57;;;;;;;147.28;46.00;;;;;;;-0.79;100.00;101858.03;1775904;80;21519;-88
2022/03/23 21:18:24;;;;;;;151.15;46.58;;;;;;;-0.79;100.00;101856.21;1781632;80;21086;-88
2022/03/23 21:20:50;;;;;;;142.50;44.23;;;;;;;-0.79;100.00;101852.73;1784867;80;21067;-88
2022/03/23 21:23:17;;;;;;;140.68;45.25;;;;;;;-0.79;100.00;101852.73;1771180;80;21125;-88
2022/03/23 21:25:45;;;;;;;140.47;45.50;;;;;;;-0.79;100.00;101847.45;1760164;80;21623;-88
2022/03/23 21:28:13;;;;;;;130.72;45.67;;;;;;;-0.87;100.00;101846.87;1773895;80;20991;-88
2022/03/23 21:30:41;;;;;;;143.68;46.68;;;;;;;-0.93;100.00;101846.99;1783517;80;21054;-88
2022/03/23 21:33:08;;;;;;;157.03;49.60;;;;;;;-1.00;100.00;101850.39;1774738;80;21201;-89
2022/03/23 21:35:34;;;;;;;167.03;50.10;;;;;;;-1.04;100.00;101847.72;1777310;80;21058;-88
2022/03/23 21:38:01;;;;;;;155.85;51.90;;;;;;;-1.13;100.00;101844.67;1765947;80;21023;-88
2022/03/23 21:40:28;;;;;;;174.23;52.23;;;;;;;-1.22;100.00;101838.48;1761088;80;21050;-88
2022/03/23 21:42:55;;;;;;;150.10;49.05;;;;;;;-1.25;100.00;101841.42;1772578;80;21105;-87
2022/03/23 21:45:23;;;;;;;138.25;47.38;;;;;;;-1.29;100.00;101834.79;1783743;80;21199;-88
2022/03/23 21:47:49;;;;;;;142.85;47.23;;;;;;;-1.32;100.00;101842.99;1765045;80;21182;-88
2022/03/23 21:50:18;;;;;;;151.78;46.55;;;;;;;-1.37;100.00;101833.72;1782620;80;21130;-88
2022/03/23 21:52:47;;;;;;;141.70;46.40;;;;;;;-1.39;100.00;101840.13;1764605;80;21579;-89
2022/03/23 21:55:14;;;;;;;147.75;45.90;;;;;;;-1.42;100.00;101835.14;1769904;80;21030;-88
2022/03/23 21:57:41;;;;;;;156.80;49.35;;;;;;;-1.45;100.00;101835.44;1760994;80;21791;-88
2022/03/23 22:00:13;;;;;;;140.32;44.73;;;;;;;-1.47;100.00;101829.47;1753481;80;21773;-88
2022/03/23 22:02:44;;;;;;;145.07;48.73;;;;;;;-1.52;100.00;101827.30;1773172;80;21047;-88
2022/03/23 22:05:13;;;;;;;143.52;45.90;;;;;;;-1.56;100.00;101818.47;1770637;80;21098;-88
2022/03/23 22:07:40;;;;;;;142.30;46.35;;;;;;;-1.61;100.00;101817.63;1764451;80;21004;-88
2022/03/23 22:10:12;;;;;;;139.65;44.65;;;;;;;-1.70;100.00;101818.52;1762212;80;22023;-89
2022/03/23 22:12:39;;;;;;;135.52;44.90;;;;;;;-1.75;100.00;101818.12;1738022;80;21058;-88
2022/03/23 22:15:08;;;;;;;130.40;42.88;;;;;;;-1.79;100.00;101822.88;1784035;80;21000;-88
2022/03/23 22:17:35;;;;;;;130.18;41.85;;;;;;;-1.83;100.00;101822.32;1776196;80;21593;-87
2022/03/23 22:20:02;;;;;;;140.10;41.18;;;;;;;-1.87;100.00;101824.93;1770092;80;21088;-88
2022/03/23 22:22:28;;;;;;;122.22;40.17;;;;;;;-1.87;100.00;101814.86;1778819;80;21137;-88
2022/03/23 22:24:55;;;;;;;110.65;36.28;;;;;;;-1.89;100.00;101807.56;1779187;80;21018;-88
2022/03/23 22:27:21;;;;;;;130.65;40.52;;;;;;;-1.88;100.00;101802.14;1775315;80;20987;-88
2022/03/23 22:29:48;;;;;;;116.70;37.78;;;;;;;-1.87;100.00;101802.48;1761172;80;21116;-89
2022/03/23 22:32:14;;;;;;;134.07;41.13;;;;;;;-1.89;100.00;101799.64;1771209;80;21034;-88
2022/03/23 22:34:41;;;;;;;123.07;39.55;;;;;;;-1.90;100.00;101796.66;1784145;80;21722;-87
2022/03/23 22:37:07;;;;;;;110.45;36.70;;;;;;;-1.95;100.00;101797.59;1784674;80;20995;-88
2022/03/23 22:39:34;;;;;;;107.20;33.25;;;;;;;-1.99;100.00;101797.06;1783951;80;20980;-88
2022/03/23 22:42:00;;;;;;;90.12;31.40;;;;;;;-2.04;100.00;101790.55;1757353;80;21531;-88
2022/03/23 22:44:28;;;;;;;87.75;30.55;;;;;;;-2.06;100.00;101790.22;1767918;80;21003;-88
2022/03/23 22:46:55;;;;;;;98.67;32.48;;;;;;;-2.06;100.00;101784.94;1761041;80;22189;-88
2022/03/23 22:49:21;;;;;;;89.10;29.67;;;;;;;-2.09;100.00;101784.38;1769253;80;21061;-88
2022/03/23 22:51:47;;;;;;;83.95;28.50;;;;;;;-2.14;100.00;101779.56;1770001;80;21117;-88
2022/03/23 22:54:14;;;;;;;85.62;28.75;;;;;;;-2.21;100.00;101777.64;1779747;80;21586;-87